Time;durP1;ratioP1;P1;durP2;ratioP2;P2;SDS_P1;SDS_P2;PMS_P1;PMS_P2;Temp;Humidity;BMP_temperature;BMP_pressure;BME280_temperature;BME280_humidity;BME280_pressure;Samples;Min_cycle;Max_cycle;Signal;HPM_P1;HPM_P2
2022/01/08 00:01:29;;;;;;;13.68;8.32;;;;;;;;;;5034698;28;20029;-80
2022/01/08 00:03:55;;;;;;;16.05;8.57;;;;;;;;;;5032548;28;20540;-80
2022/01/08 00:06:24;;;;;;;13.30;7.97;;;;;;;;;;5032221;28;20033;-80
2022/01/08 00:08:50;;;;;;;15.55;8.23;;;;;;;;;;5031172;28;20033;-81
2022/01/08 00:11:20;;;;;;;15.45;7.65;;;;;;;;;;5031263;28;20038;-80
2022/01/08 00:13:47;;;;;;;13.43;6.93;;;;;;;;;;5031180;28;20056;-81
2022/01/08 00:16:13;;;;;;;14.77;7.70;;;;;;;;;;5030647;28;20026;-82
2022/01/08 00:18:39;;;;;;;13.13;7.75;;;;;;;;;;5030456;28;20060;-79
2022/01/08 00:21:05;;;;;;;11.93;6.75;;;;;;;;;;5029567;28;20036;-80
2022/01/08 00:23:32;;;;;;;12.48;6.57;;;;;;;;;;5031253;28;20041;-81
2022/01/08 00:26:01;;;;;;;14.80;7.18;;;;;;;;;;5029806;28;20034;-81
2022/01/08 00:28:27;;;;;;;15.27;6.97;;;;;;;;;;5031775;28;20029;-81
2022/01/08 00:30:54;;;;;;;11.90;6.68;;;;;;;;;;5030541;28;20026;-81
2022/01/08 00:33:20;;;;;;;14.32;8.32;;;;;;;;;;5029918;28;20056;-79
2022/01/08 00:35:47;;;;;;;14.20;7.82;;;;;;;;;;5028993;28;20030;-80
2022/01/08 00:38:13;;;;;;;13.02;7.85;;;;;;;;;;5028824;28;20048;-81
2022/01/08 00:40:43;;;;;;;12.63;7.00;;;;;;;;;;5030081;28;20117;-79
2022/01/08 00:43:09;;;;;;;15.60;8.00;;;;;;;;;;5029563;28;20038;-80
2022/01/08 00:45:35;;;;;;;12.88;8.23;;;;;;;;;;5030174;28;20052;-80
2022/01/08 00:48:01;;;;;;;16.95;9.65;;;;;;;;;;5029595;28;20026;-80
2022/01/08 00:50:27;;;;;;;14.65;8.18;;;;;;;;;;5029649;28;20053;-79
2022/01/08 00:52:53;;;;;;;17.65;10.82;;;;;;;;;;5029167;28;20026;-80
2022/01/08 00:55:19;;;;;;;18.08;8.60;;;;;;;;;;5028669;28;20045;-80
2022/01/08 00:57:46;;;;;;;16.00;8.65;;;;;;;;;;5030022;28;20022;-79
2022/01/08 01:00:14;;;;;;;15.68;9.55;;;;;;;;;;5029549;28;20034;-80
2022/01/08 01:02:41;;;;;;;14.30;8.30;;;;;;;;;;5030598;28;20515;-80
2022/01/08 01:05:08;;;;;;;16.05;8.85;;;;;;;;;;5029108;28;20463;-80
2022/01/08 01:07:34;;;;;;;19.38;9.05;;;;;;;;;;5029471;28;20026;-80
2022/01/08 01:10:00;;;;;;;17.20;8.90;;;;;;;;;;5027985;28;20428;-79
2022/01/08 01:12:26;;;;;;;19.05;9.57;;;;;;;;;;5027899;28;20037;-79
2022/01/08 01:14:53;;;;;;;15.98;7.82;;;;;;;;;;5028137;28;20024;-80
2022/01/08 01:17:19;;;;;;;13.82;8.45;;;;;;;;;;5027901;28;20567;-80
2022/01/08 01:19:47;;;;;;;14.20;8.18;;;;;;;;;;5029661;28;20030;-81
2022/01/08 01:22:17;;;;;;;14.07;7.90;;;;;;;;;;5028910;28;20030;-81
2022/01/08 01:24:43;;;;;;;15.73;7.35;;;;;;;;;;5030383;28;20022;-80
2022/01/08 01:30:03;;;;;;;16.33;9.00;;;;;;;;;;5029155;28;20026;-81
2022/01/08 01:49:04;;;;;;;14.23;7.88;;;;;;;;;;5018911;28;20113;-81
2022/01/08 01:51:30;;;;;;;15.77;8.38;;;;;;;;;;5029766;28;20036;-80
2022/01/08 01:53:56;;;;;;;12.93;8.32;;;;;;;;;;5029601;28;20042;-81
2022/01/08 01:56:23;;;;;;;17.77;9.90;;;;;;;;;;5029459;28;20026;-81
2022/01/08 01:58:49;;;;;;;13.38;8.02;;;;;;;;;;5028060;28;20026;-81
2022/01/08 02:01:15;;;;;;;15.57;8.60;;;;;;;;;;5027252;28;20029;-81
2022/01/08 02:03:41;;;;;;;14.82;8.77;;;;;;;;;;5026788;28;20040;-81
2022/01/08 02:06:08;;;;;;;14.75;8.98;;;;;;;;;;5028721;28;20076;-80
2022/01/08 02:08:35;;;;;;;14.40;8.18;;;;;;;;;;5028784;28;20022;-81
2022/01/08 02:11:01;;;;;;;17.83;8.55;;;;;;;;;;5028196;28;20018;-81
2022/01/08 02:13:28;;;;;;;14.98;8.60;;;;;;;;;;5028196;28;20026;-81
2022/01/08 02:15:55;;;;;;;15.50;8.57;;;;;;;;;;5027863;28;20090;-80
2022/01/08 02:18:25;;;;;;;14.65;7.93;;;;;;;;;;5028192;28;20109;-82
2022/01/08 02:20:52;;;;;;;17.05;7.47;;;;;;;;;;5029598;28;20022;-81
2022/01/08 02:23:18;;;;;;;15.05;8.70;;;;;;;;;;5032219;28;20029;-80
2022/01/08 02:25:45;;;;;;;15.13;9.35;;;;;;;;;;5031111;28;20081;-80
2022/01/08 02:28:11;;;;;;;18.55;9.75;;;;;;;;;;5028544;28;20029;-81
2022/01/08 02:30:37;;;;;;;13.32;8.77;;;;;;;;;;5028245;28;20029;-80
2022/01/08 02:33:03;;;;;;;18.95;9.73;;;;;;;;;;5028154;28;20022;-80
2022/01/08 02:35:30;;;;;;;17.55;8.73;;;;;;;;;;5026194;28;20380;-80
2022/01/08 02:37:56;;;;;;;17.90;10.15;;;;;;;;;;5025674;28;20018;-81
2022/01/08 02:40:23;;;;;;;17.63;10.15;;;;;;;;;;5027594;28;20021;-81
2022/01/08 02:42:59;;;;;;;15.70;9.45;;;;;;;;;;5027558;28;20045;-81
2022/01/08 02:45:30;;;;;;;16.00;9.35;;;;;;;;;;5027825;28;20026;-80
2022/01/08 02:47:56;;;;;;;15.85;9.45;;;;;;;;;;5026530;28;20235;-80
2022/01/08 02:50:23;;;;;;;17.15;9.77;;;;;;;;;;5027107;28;20052;-80
2022/01/08 02:52:50;;;;;;;16.98;10.50;;;;;;;;;;5025428;28;20025;-80
2022/01/08 02:55:17;;;;;;;17.88;10.20;;;;;;;;;;5025377;28;20046;-82
2022/01/08 02:57:43;;;;;;;16.88;10.80;;;;;;;;;;5027762;28;20092;-80
2022/01/08 03:00:10;;;;;;;14.82;9.10;;;;;;;;;;5030190;28;20061;-79
2022/01/08 03:02:47;;;;;;;19.30;9.60;;;;;;;;;;5029421;28;20120;-79
2022/01/08 03:05:14;;;;;;;17.25;9.57;;;;;;;;;;5029177;28;20045;-80
2022/01/08 03:07:40;;;;;;;17.02;9.57;;;;;;;;;;5030678;28;20037;-80
2022/01/08 03:10:08;;;;;;;17.40;9.57;;;;;;;;;;5030385;28;20172;-80
2022/01/08 03:12:38;;;;;;;16.38;9.38;;;;;;;;;;5029709;28;20018;-80
2022/01/08 03:15:05;;;;;;;13.45;9.02;;;;;;;;;;5031668;28;20495;-81
2022/01/08 03:17:31;;;;;;;18.15;10.30;;;;;;;;;;5031060;28;20037;-80
2022/01/08 03:20:03;;;;;;;16.58;10.00;;;;;;;;;;5029251;28;20053;-80
2022/01/08 03:22:30;;;;;;;17.67;8.43;;;;;;;;;;5030139;28;20109;-80
2022/01/08 03:24:56;;;;;;;17.60;10.02;;;;;;;;;;5031053;28;20081;-80
2022/01/08 03:27:22;;;;;;;22.15;12.85;;;;;;;;;;5029156;28;20281;-80
2022/01/08 03:29:48;;;;;;;23.02;11.80;;;;;;;;;;5030215;28;20025;-80
2022/01/08 03:32:15;;;;;;;18.95;10.65;;;;;;;;;;5029961;28;20034;-80
2022/01/08 03:34:41;;;;;;;17.42;9.98;;;;;;;;;;5031340;28;20108;-80
2022/01/08 03:37:07;;;;;;;17.92;10.60;;;;;;;;;;5029469;28;20026;-80
2022/01/08 03:39:33;;;;;;;18.35;10.25;;;;;;;;;;5030425;28;20061;-80
2022/01/08 03:41:59;;;;;;;19.38;10.80;;;;;;;;;;5030469;28;20060;-80
2022/01/08 03:44:25;;;;;;;16.35;9.82;;;;;;;;;;5028921;28;20030;-80
2022/01/08 03:46:52;;;;;;;16.13;10.35;;;;;;;;;;5028157;28;20056;-80
2022/01/08 03:49:25;;;;;;;19.67;11.15;;;;;;;;;;5028758;28;20030;-80
2022/01/08 03:51:55;;;;;;;16.73;9.55;;;;;;;;;;5029979;28;20026;-80
2022/01/08 03:54:21;;;;;;;17.58;10.27;;;;;;;;;;5028562;28;20038;-80
2022/01/08 03:56:48;;;;;;;17.38;10.07;;;;;;;;;;5029466;28;20034;-80
2022/01/08 03:59:15;;;;;;;17.08;9.85;;;;;;;;;;5027625;28;20100;-81
2022/01/08 04:01:41;;;;;;;18.55;10.90;;;;;;;;;;5029288;28;20034;-80
2022/01/08 04:04:07;;;;;;;18.33;10.68;;;;;;;;;;5029075;28;20037;-79
2022/01/08 04:06:33;;;;;;;17.33;10.77;;;;;;;;;;5028916;28;20065;-80
2022/01/08 04:08:59;;;;;;;18.05;11.35;;;;;;;;;;5026920;28;20014;-80
2022/01/08 04:11:26;;;;;;;15.77;10.20;;;;;;;;;;5029030;28;20026;-79
2022/01/08 04:13:53;;;;;;;15.32;9.57;;;;;;;;;;5029467;28;20030;-79
2022/01/08 04:16:27;;;;;;;16.50;9.43;;;;;;;;;;5027932;28;20116;-80
2022/01/08 04:18:53;;;;;;;18.25;10.40;;;;;;;;;;5029491;28;20061;-79
2022/01/08 04:23:45;;;;;;;17.17;10.38;;;;;;;;;;5028879;28;20110;-79
2022/01/08 04:26:11;;;;;;;18.27;10.95;;;;;;;;;;5028595;28;20033;-79
2022/01/08 04:28:37;;;;;;;16.73;9.88;;;;;;;;;;5027024;28;20089;-79
2022/01/08 04:31:03;;;;;;;15.77;9.82;;;;;;;;;;5028797;28;20022;-79
2022/01/08 04:33:30;;;;;;;14.77;9.90;;;;;;;;;;5028214;28;20082;-78
2022/01/08 04:35:56;;;;;;;13.68;8.90;;;;;;;;;;5029265;28;20030;-79
2022/01/08 04:38:22;;;;;;;13.30;9.82;;;;;;;;;;5026968;28;20026;-79
2022/01/08 04:40:48;;;;;;;17.25;9.88;;;;;;;;;;5027235;28;20014;-78
2022/01/08 04:43:15;;;;;;;17.27;10.82;;;;;;;;;;5027792;28;20090;-78
2022/01/08 04:45:42;;;;;;;17.83;10.50;;;;;;;;;;5028812;28;20415;-79
2022/01/08 04:48:08;;;;;;;15.70;10.05;;;;;;;;;;5029352;28;20026;-79
2022/01/08 04:50:34;;;;;;;15.10;9.57;;;;;;;;;;5028558;28;20022;-79
2022/01/08 04:53:00;;;;;;;16.98;10.40;;;;;;;;;;5028624;28;20018;-79
2022/01/08 04:55:27;;;;;;;19.35;11.25;;;;;;;;;;5028608;28;20044;-79
2022/01/08 04:57:53;;;;;;;16.48;10.13;;;;;;;;;;5028963;28;20400;-79
2022/01/08 05:00:20;;;;;;;16.70;10.80;;;;;;;;;;5027845;28;20045;-79
2022/01/08 05:02:46;;;;;;;17.05;9.75;;;;;;;;;;5027765;28;20026;-79
2022/01/08 05:05:12;;;;;;;17.40;10.40;;;;;;;;;;5027978;28;20029;-79
2022/01/08 05:07:39;;;;;;;17.77;10.55;;;;;;;;;;5028520;28;20125;-79
2022/01/08 05:10:05;;;;;;;18.90;10.85;;;;;;;;;;5027281;28;20037;-78
2022/01/08 05:12:32;;;;;;;17.20;10.32;;;;;;;;;;5028594;28;20053;-80
2022/01/08 05:14:58;;;;;;;17.95;10.65;;;;;;;;;;5027815;28;20034;-79
2022/01/08 05:17:29;;;;;;;17.90;11.20;;;;;;;;;;5029023;28;20026;-79
2022/01/08 05:19:58;;;;;;;19.02;11.73;;;;;;;;;;5027175;28;20033;-80
2022/01/08 05:22:31;;;;;;;20.35;11.27;;;;;;;;;;5030150;28;20030;-78
2022/01/08 05:24:57;;;;;;;;;;;;;;;;;;5030391;28;20029;-79
2022/01/08 05:27:24;;;;;;;18.25;10.40;;;;;;;;;;5033244;28;19916;-79
2022/01/08 05:29:52;;;;;;;15.75;10.32;;;;;;;;;;5034915;28;20024;-78
2022/01/08 05:32:18;;;;;;;21.35;11.43;;;;;;;;;;5029194;28;20041;-78
2022/01/08 05:34:45;;;;;;;17.40;11.02;;;;;;;;;;5028355;28;20112;-78
2022/01/08 05:37:12;;;;;;;19.35;11.80;;;;;;;;;;5028787;28;20025;-81
2022/01/08 05:39:40;;;;;;;18.10;10.02;;;;;;;;;;5027848;28;20030;-79
2022/01/08 05:42:06;;;;;;;20.13;11.07;;;;;;;;;;5026530;28;20064;-79
2022/01/08 05:44:32;;;;;;;20.85;11.82;;;;;;;;;;5025711;28;20034;-79
2022/01/08 05:46:58;;;;;;;19.83;9.60;;;;;;;;;;5026986;28;20030;-78
2022/01/08 05:49:24;;;;;;;16.90;10.45;;;;;;;;;;5028192;28;20053;-79
2022/01/08 05:51:50;;;;;;;17.55;10.93;;;;;;;;;;5028003;28;20053;-79
2022/01/08 05:54:17;;;;;;;17.38;11.43;;;;;;;;;;5027977;28;20652;-79
2022/01/08 05:56:43;;;;;;;17.85;10.65;;;;;;;;;;5028116;28;20037;-79
2022/01/08 05:59:09;;;;;;;19.20;11.07;;;;;;;;;;5026718;28;20030;-79
2022/01/08 06:01:35;;;;;;;17.48;10.05;;;;;;;;;;5025993;28;20034;-80
2022/01/08 06:04:02;;;;;;;15.80;9.57;;;;;;;;;;5027421;28;20053;-79
2022/01/08 06:06:28;;;;;;;18.80;10.02;;;;;;;;;;5027006;28;20026;-80
2022/01/08 06:08:54;;;;;;;17.08;10.15;;;;;;;;;;5028407;28;20025;-80
2022/01/08 06:11:20;;;;;;;21.08;10.70;;;;;;;;;;5024952;28;20094;-78
2022/01/08 06:13:46;;;;;;;16.77;9.80;;;;;;;;;;5025411;28;20030;-78
2022/01/08 06:16:12;;;;;;;19.83;11.00;;;;;;;;;;5025821;28;20037;-80
2022/01/08 06:18:39;;;;;;;18.88;10.60;;;;;;;;;;5027172;28;20065;-80
2022/01/08 06:21:05;;;;;;;22.20;11.05;;;;;;;;;;5027132;28;20030;-80
2022/01/08 06:23:31;;;;;;;17.60;9.63;;;;;;;;;;5026028;28;20058;-78
2022/01/08 06:25:58;;;;;;;17.77;10.07;;;;;;;;;;5024331;28;20083;-79
2022/01/08 06:28:24;;;;;;;15.00;10.13;;;;;;;;;;5024060;28;20030;-79
2022/01/08 06:30:50;;;;;;;19.70;9.75;;;;;;;;;;5023168;28;20045;-79
2022/01/08 06:33:18;;;;;;;21.13;9.57;;;;;;;;;;5021463;28;20018;-79
2022/01/08 06:35:44;;;;;;;19.05;10.63;;;;;;;;;;5021878;28;20022;-79
2022/01/08 06:38:11;;;;;;;14.93;9.85;;;;;;;;;;5021885;28;20022;-80
2022/01/08 06:40:37;;;;;;;18.50;10.18;;;;;;;;;;5023752;28;20018;-78
2022/01/08 06:43:03;;;;;;;20.13;10.15;;;;;;;;;;5021817;28;20026;-79
2022/01/08 06:45:29;;;;;;;18.08;10.60;;;;;;;;;;5021225;28;20428;-78
2022/01/08 06:47:59;;;;;;;20.02;11.25;;;;;;;;;;5021414;28;20042;-79
2022/01/08 06:50:27;;;;;;;17.90;11.10;;;;;;;;;;5021491;28;20018;-80
2022/01/08 06:52:53;;;;;;;18.45;12.00;;;;;;;;;;5020880;28;20026;-78
2022/01/08 06:55:19;;;;;;;18.52;10.63;;;;;;;;;;5021294;28;20100;-79
2022/01/08 06:57:45;;;;;;;19.25;11.73;;;;;;;;;;5025180;28;20048;-79
2022/01/08 07:00:11;;;;;;;19.63;11.43;;;;;;;;;;5026415;28;20032;-79
2022/01/08 07:02:38;;;;;;;18.50;10.25;;;;;;;;;;5024003;28;20038;-79
2022/01/08 07:05:04;;;;;;;14.35;9.38;;;;;;;;;;5026113;28;20086;-79
2022/01/08 07:07:30;;;;;;;16.08;10.35;;;;;;;;;;5026309;28;20113;-79
2022/01/08 07:09:56;;;;;;;20.35;11.50;;;;;;;;;;5025935;28;20480;-79
2022/01/08 07:12:22;;;;;;;19.67;10.63;;;;;;;;;;5025741;28;20026;-79
2022/01/08 07:14:48;;;;;;;21.60;11.30;;;;;;;;;;5025535;28;20014;-80
2022/01/08 07:17:15;;;;;;;21.15;10.85;;;;;;;;;;5025397;28;20037;-79
2022/01/08 07:19:41;;;;;;;20.23;11.82;;;;;;;;;;5024457;28;20037;-80
2022/01/08 07:22:07;;;;;;;18.52;10.95;;;;;;;;;;5022268;28;20033;-80
2022/01/08 07:24:33;;;;;;;19.17;10.88;;;;;;;;;;5023164;28;20029;-79
2022/01/08 07:26:59;;;;;;;17.00;10.38;;;;;;;;;;5026081;28;20022;-79
2022/01/08 07:29:25;;;;;;;17.10;10.43;;;;;;;;;;5024844;28;20029;-79
2022/01/08 07:31:51;;;;;;;20.20;11.20;;;;;;;;;;5024873;28;20090;-79
2022/01/08 07:34:17;;;;;;;15.88;10.13;;;;;;;;;;5024919;28;20041;-80
2022/01/08 07:36:43;;;;;;;20.30;10.68;;;;;;;;;;5025004;28;20120;-78
2022/01/08 07:39:09;;;;;;;19.30;11.27;;;;;;;;;;5025016;28;20018;-79
2022/01/08 07:41:35;;;;;;;20.67;10.05;;;;;;;;;;5025254;28;20032;-78
2022/01/08 07:44:01;;;;;;;20.08;11.15;;;;;;;;;;5024896;28;20249;-78
2022/01/08 07:46:28;;;;;;;18.33;10.55;;;;;;;;;;5024351;28;20030;-78
2022/01/08 07:48:54;;;;;;;21.25;11.65;;;;;;;;;;5023818;28;20033;-79
2022/01/08 07:51:20;;;;;;;23.75;11.93;;;;;;;;;;5024263;28;20477;-80
2022/01/08 07:53:46;;;;;;;17.90;10.55;;;;;;;;;;5024895;28;20396;-79
2022/01/08 07:56:13;;;;;;;18.15;11.35;;;;;;;;;;5026877;28;20128;-79
2022/01/08 07:58:39;;;;;;;20.13;11.23;;;;;;;;;;5026303;28;20030;-79
2022/01/08 08:01:05;;;;;;;20.63;11.23;;;;;;;;;;5027047;28;20025;-79
2022/01/08 08:03:32;;;;;;;20.25;9.85;;;;;;;;;;5027803;28;20034;-79
2022/01/08 08:05:58;;;;;;;17.08;10.43;;;;;;;;;;5026560;28;20097;-79
2022/01/08 08:08:24;;;;;;;17.17;10.98;;;;;;;;;;5023523;28;20030;-78
2022/01/08 08:10:50;;;;;;;19.45;10.35;;;;;;;;;;5024682;28;20049;-78
2022/01/08 08:13:18;;;;;;;19.15;10.52;;;;;;;;;;5027379;28;20045;-79
2022/01/08 08:15:44;;;;;;;19.70;11.27;;;;;;;;;;5027710;28;20029;-79
2022/01/08 08:18:11;;;;;;;16.70;9.82;;;;;;;;;;5027005;28;20033;-79
2022/01/08 08:20:37;;;;;;;15.82;9.75;;;;;;;;;;5025007;28;20029;-79
2022/01/08 08:23:03;;;;;;;15.90;9.32;;;;;;;;;;5024946;28;20026;-79
2022/01/08 08:25:29;;;;;;;17.10;10.55;;;;;;;;;;5022294;28;20026;-79
2022/01/08 08:27:55;;;;;;;16.42;10.32;;;;;;;;;;5024351;28;20022;-78
2022/01/08 08:30:22;;;;;;;25.30;12.55;;;;;;;;;;5029153;28;20037;-80
2022/01/08 08:32:48;;;;;;;16.33;10.52;;;;;;;;;;5024758;28;20026;-78
2022/01/08 08:35:14;;;;;;;18.08;11.15;;;;;;;;;;5021939;28;20109;-78
2022/01/08 08:37:40;;;;;;;18.42;10.98;;;;;;;;;;5022740;28;20033;-78
2022/01/08 08:40:08;;;;;;;17.55;11.13;;;;;;;;;;5023589;28;20014;-78
2022/01/08 08:42:35;;;;;;;16.13;10.73;;;;;;;;;;5025705;28;20018;-78
2022/01/08 08:45:01;;;;;;;18.23;10.82;;;;;;;;;;5021548;28;20435;-79
2022/01/08 08:47:27;;;;;;;17.90;9.90;;;;;;;;;;5024118;28;20484;-78
2022/01/08 08:49:53;;;;;;;16.35;9.73;;;;;;;;;;5024091;28;20041;-79
2022/01/08 08:52:19;;;;;;;17.42;10.90;;;;;;;;;;5024650;28;20032;-79
2022/01/08 08:54:45;;;;;;;19.45;11.15;;;;;;;;;;5023460;28;20100;-80
2022/01/08 08:57:12;;;;;;;23.52;11.77;;;;;;;;;;5025344;28;20477;-79
2022/01/08 08:59:40;;;;;;;18.83;10.65;;;;;;;;;;5023677;28;20041;-79
2022/01/08 09:02:06;;;;;;;20.40;12.63;;;;;;;;;;5022157;28;20115;-78
2022/01/08 09:04:32;;;;;;;23.40;11.70;;;;;;;;;;5022133;28;20128;-79
2022/01/08 09:06:58;;;;;;;18.33;10.48;;;;;;;;;;5023511;28;20113;-79
2022/01/08 09:09:25;;;;;;;19.02;10.43;;;;;;;;;;5023804;28;20025;-79
2022/01/08 09:11:51;;;;;;;16.67;10.32;;;;;;;;;;5024687;28;20029;-79
2022/01/08 09:14:19;;;;;;;17.13;11.57;;;;;;;;;;5023468;28;20049;-79
2022/01/08 09:16:46;;;;;;;14.82;9.63;;;;;;;;;;5023981;28;20523;-79
2022/01/08 09:19:12;;;;;;;20.23;10.90;;;;;;;;;;5022590;28;20084;-78
2022/01/08 09:21:39;;;;;;;15.80;9.98;;;;;;;;;;5024077;28;20093;-79
2022/01/08 09:24:05;;;;;;;15.98;9.95;;;;;;;;;;5022401;28;20030;-79
2022/01/08 09:26:31;;;;;;;15.45;9.63;;;;;;;;;;5023255;28;20033;-79
2022/01/08 09:28:57;;;;;;;21.30;11.52;;;;;;;;;;5022052;28;20040;-78
2022/01/08 09:31:23;;;;;;;22.30;12.77;;;;;;;;;;5020467;28;20045;-78
2022/01/08 09:33:49;;;;;;;18.60;11.73;;;;;;;;;;5019176;28;20033;-78
2022/01/08 09:36:15;;;;;;;24.85;13.90;;;;;;;;;;5020523;28;20026;-78
2022/01/08 09:38:41;;;;;;;19.92;11.80;;;;;;;;;;5022452;28;20025;-79
2022/01/08 09:41:07;;;;;;;19.73;11.40;;;;;;;;;;5024033;28;20026;-78
2022/01/08 09:43:35;;;;;;;19.98;11.77;;;;;;;;;;5020276;28;20018;-79
2022/01/08 09:46:01;;;;;;;19.08;12.63;;;;;;;;;;5023731;28;20037;-79
2022/01/08 09:48:27;;;;;;;17.40;10.93;;;;;;;;;;5022328;28;20034;-79
2022/01/08 09:50:53;;;;;;;18.83;11.32;;;;;;;;;;5021513;28;20577;-79
2022/01/08 09:53:20;;;;;;;15.85;10.77;;;;;;;;;;5022944;28;20036;-78
2022/01/08 09:55:47;;;;;;;18.77;11.70;;;;;;;;;;5023053;28;20503;-78
2022/01/08 09:58:13;;;;;;;19.75;11.70;;;;;;;;;;5023452;28;20109;-79
2022/01/08 10:00:39;;;;;;;16.20;10.20;;;;;;;;;;5023034;28;20030;-79
2022/01/08 10:03:17;;;;;;;19.90;11.50;;;;;;;;;;5023249;28;20066;-78
2022/01/08 10:05:45;;;;;;;21.27;11.60;;;;;;;;;;5022320;28;20141;-78
2022/01/08 10:08:14;;;;;;;19.65;11.07;;;;;;;;;;5021683;28;20034;-78
2022/01/08 10:10:40;;;;;;;20.38;13.20;;;;;;;;;;5019760;28;20018;-77
2022/01/08 10:13:06;;;;;;;18.83;11.13;;;;;;;;;;5022737;28;20054;-79
2022/01/08 10:18:24;;;;;;;18.92;11.75;;;;;;;;;;5023565;28;20510;-78
2022/01/08 10:20:50;;;;;;;19.00;12.48;;;;;;;;;;5022208;28;20124;-78
2022/01/08 10:23:18;;;;;;;22.60;13.20;;;;;;;;;;5024237;28;20022;-79
2022/01/08 10:25:56;;;;;;;19.35;11.98;;;;;;;;;;5022478;28;20033;-78
2022/01/08 10:28:56;;;;;;;20.13;12.82;;;;;;;;;;5021776;28;20026;-78
2022/01/08 10:31:25;;;;;;;21.45;12.70;;;;;;;;;;5001837;28;20041;-79
2022/01/08 10:33:54;;;;;;;21.40;12.32;;;;;;;;;;4985699;28;20030;-79
2022/01/08 10:36:27;;;;;;;20.95;12.82;;;;;;;;;;5001698;28;20137;-79
2022/01/08 10:38:54;;;;;;;19.60;12.32;;;;;;;;;;5000058;28;20512;-79
2022/01/08 10:41:21;;;;;;;19.00;12.32;;;;;;;;;;5000493;28;20038;-78
2022/01/08 10:43:47;;;;;;;20.58;12.15;;;;;;;;;;4984022;28;20030;-79
2022/01/08 10:46:15;;;;;;;18.65;11.27;;;;;;;;;;4999940;28;20038;-78
2022/01/08 10:48:51;;;;;;;16.55;10.55;;;;;;;;;;4984178;28;20042;-79
2022/01/08 10:51:19;;;;;;;23.10;12.23;;;;;;;;;;5001490;28;20038;-79
2022/01/08 10:53:55;;;;;;;20.08;11.55;;;;;;;;;;4985471;28;20160;-79
2022/01/08 10:56:22;;;;;;;18.92;11.30;;;;;;;;;;4985610;28;20038;-79
2022/01/08 10:58:53;;;;;;;21.48;12.93;;;;;;;;;;4982971;28;20095;-79
2022/01/08 11:01:38;;;;;;;19.23;11.63;;;;;;;;;;4981967;28;20039;-79
2022/01/08 11:04:04;;;;;;;18.02;12.05;;;;;;;;;;4992906;28;20069;-79
2022/01/08 11:06:30;;;;;;;20.55;12.15;;;;;;;;;;4995070;28;20509;-79
2022/01/08 11:09:03;;;;;;;20.55;13.30;;;;;;;;;;5022481;28;20057;-79
2022/01/08 11:11:31;;;;;;;16.83;10.55;;;;;;;;;;5024898;28;20037;-79
2022/01/08 11:14:05;;;;;;;20.98;12.68;;;;;;;;;;5024812;28;20029;-79
2022/01/08 11:16:31;;;;;;;19.05;11.90;;;;;;;;;;5028401;28;20298;-78
2022/01/08 11:18:59;;;;;;;22.73;13.07;;;;;;;;;;5028764;28;20045;-79
2022/01/08 11:21:28;;;;;;;18.27;11.27;;;;;;;;;;5029861;28;20056;-79
2022/01/08 11:23:54;;;;;;;20.80;12.00;;;;;;;;;;5028989;28;20033;-79
2022/01/08 11:26:20;;;;;;;22.17;11.43;;;;;;;;;;5028372;28;20113;-79
2022/01/08 11:28:47;;;;;;;20.35;13.45;;;;;;;;;;5029632;28;20030;-79
2022/01/08 11:31:16;;;;;;;20.45;12.60;;;;;;;;;;5031196;28;20025;-79
2022/01/08 11:33:47;;;;;;;18.65;11.23;;;;;;;;;;5031093;28;20084;-79
2022/01/08 11:36:14;;;;;;;19.60;11.70;;;;;;;;;;5026220;28;20396;-79
2022/01/08 11:38:43;;;;;;;19.58;10.60;;;;;;;;;;5023794;28;20022;-78
2022/01/08 11:41:09;;;;;;;18.10;11.43;;;;;;;;;;5024691;28;20018;-78
2022/01/08 11:43:36;;;;;;;19.17;11.27;;;;;;;;;;5025396;28;20044;-79
2022/01/08 11:46:07;;;;;;;18.70;10.50;;;;;;;;;;5024718;28;20030;-79
2022/01/08 11:48:41;;;;;;;17.55;11.32;;;;;;;;;;5025605;28;20040;-78
2022/01/08 11:51:14;;;;;;;16.75;10.93;;;;;;;;;;5025926;28;20040;-80
2022/01/08 11:53:40;;;;;;;;;;;;;;;;;;5025794;28;20057;-79
2022/01/08 11:56:07;;;;;;;15.85;10.57;;;;;;;;;;5026280;28;19909;-79
2022/01/08 11:58:34;;;;;;;17.00;12.15;;;;;;;;;;5026280;28;20026;-79
2022/01/08 12:01:02;;;;;;;18.23;12.65;;;;;;;;;;5025837;28;20045;-80
2022/01/08 12:03:36;;;;;;;20.42;12.98;;;;;;;;;;5025178;28;20052;-80
2022/01/08 12:06:21;;;;;;;17.42;12.05;;;;;;;;;;5026035;28;20245;-80
2022/01/08 12:08:50;;;;;;;16.20;11.38;;;;;;;;;;5024973;28;20079;-81
2022/01/08 12:11:17;;;;;;;17.95;12.95;;;;;;;;;;5026730;28;20022;-79
2022/01/08 12:13:46;;;;;;;19.10;12.82;;;;;;;;;;5027487;28;20113;-80
2022/01/08 12:16:41;;;;;;;16.92;11.13;;;;;;;;;;5026129;28;20026;-79
2022/01/08 12:19:09;;;;;;;16.63;12.00;;;;;;;;;;5004597;28;20515;-79
2022/01/08 12:21:42;;;;;;;16.70;10.63;;;;;;;;;;5005649;28;20066;-79
2022/01/08 12:24:21;;;;;;;17.17;11.43;;;;;;;;;;5004613;28;20030;-79
2022/01/08 12:26:47;;;;;;;16.90;11.20;;;;;;;;;;5002795;28;20030;-79
2022/01/08 12:29:33;;;;;;;17.95;11.55;;;;;;;;;;5004082;28;20038;-79
2022/01/08 12:32:18;;;;;;;16.40;11.25;;;;;;;;;;5016655;28;20400;-78
2022/01/08 12:34:49;;;;;;;13.85;10.07;;;;;;;;;;5022496;28;20026;-79
2022/01/08 12:37:16;;;;;;;16.95;10.93;;;;;;;;;;5023685;28;20022;-79
2022/01/08 12:39:47;;;;;;;16.70;11.32;;;;;;;;;;5022923;28;20056;-79
2022/01/08 12:42:22;;;;;;;16.20;10.88;;;;;;;;;;5023199;28;20046;-79
2022/01/08 12:45:07;;;;;;;15.15;11.32;;;;;;;;;;5024211;28;20036;-79
2022/01/08 12:47:44;;;;;;;18.20;11.18;;;;;;;;;;5021415;28;20034;-79
2022/01/08 12:50:22;;;;;;;16.77;11.07;;;;;;;;;;5023269;28;20057;-80
2022/01/08 12:53:15;;;;;;;13.18;9.52;;;;;;;;;;5022530;28;20018;-79
2022/01/08 12:55:42;;;;;;;16.13;10.13;;;;;;;;;;5018055;28;20041;-80
2022/01/08 12:58:19;;;;;;;16.38;10.20;;;;;;;;;;5022061;28;20045;-78
2022/01/08 13:01:01;;;;;;;17.70;11.50;;;;;;;;;;5021260;28;20030;-79
2022/01/08 13:03:44;;;;;;;14.70;10.48;;;;;;;;;;5023309;28;20082;-79
2022/01/08 13:06:10;;;;;;;;;;;;;;;;;;5022448;28;20476;-80
2022/01/08 13:08:36;;;;;;;14.82;10.23;;;;;;;;;;5021601;28;19951;-78
2022/01/08 13:11:07;;;;;;;17.08;11.07;;;;;;;;;;5022885;28;20058;-79
2022/01/08 13:13:42;;;;;;;15.77;10.38;;;;;;;;;;5023646;28;20076;-80
2022/01/08 13:16:12;;;;;;;12.27;9.43;;;;;;;;;;5024294;28;20072;-79
2022/01/08 13:18:41;;;;;;;18.08;12.10;;;;;;;;;;5021977;28;20414;-79
2022/01/08 13:21:09;;;;;;;14.20;10.30;;;;;;;;;;5021804;28;20065;-79
2022/01/08 13:23:44;;;;;;;17.20;11.43;;;;;;;;;;5025571;28;20033;-79
2022/01/08 13:26:11;;;;;;;15.23;10.98;;;;;;;;;;5023846;28;20153;-80
2022/01/08 13:28:37;;;;;;;19.80;11.48;;;;;;;;;;5023099;28;20014;-79
2022/01/08 13:31:03;;;;;;;17.17;11.68;;;;;;;;;;5024216;28;20029;-80
2022/01/08 13:33:29;;;;;;;17.42;11.50;;;;;;;;;;5024911;28;20026;-80
2022/01/08 13:35:59;;;;;;;16.20;11.20;;;;;;;;;;5024510;28;20481;-79
2022/01/08 13:38:29;;;;;;;16.75;10.13;;;;;;;;;;5021050;28;20326;-78
2022/01/08 13:40:55;;;;;;;15.27;10.10;;;;;;;;;;5020207;28;20026;-78
2022/01/08 13:43:21;;;;;;;16.95;11.40;;;;;;;;;;5021781;28;20030;-78
2022/01/08 13:45:54;;;;;;;15.50;11.48;;;;;;;;;;5020897;28;20018;-78
2022/01/08 13:48:20;;;;;;;19.42;10.73;;;;;;;;;;5023743;28;20036;-79
2022/01/08 13:50:56;;;;;;;17.55;10.45;;;;;;;;;;5025936;28;20045;-80
2022/01/08 13:53:22;;;;;;;15.60;9.68;;;;;;;;;;5025084;28;20014;-80
2022/01/08 13:55:51;;;;;;;16.10;10.02;;;;;;;;;;5024733;28;20133;-79
2022/01/08 13:58:30;;;;;;;18.38;10.15;;;;;;;;;;5024215;28;20812;-80
2022/01/08 14:00:59;;;;;;;17.23;11.02;;;;;;;;;;5024935;28;20033;-79
2022/01/08 14:03:30;;;;;;;15.43;9.98;;;;;;;;;;5025776;28;20053;-79
2022/01/08 14:05:58;;;;;;;16.38;10.82;;;;;;;;;;5024427;28;20056;-79
2022/01/08 14:08:25;;;;;;;16.00;10.50;;;;;;;;;;5024523;28;20029;-80
2022/01/08 14:10:53;;;;;;;17.65;12.02;;;;;;;;;;5021488;28;20041;-79
2022/01/08 14:13:23;;;;;;;15.15;10.93;;;;;;;;;;5022213;28;20026;-78
2022/01/08 14:15:58;;;;;;;18.15;11.00;;;;;;;;;;5020609;28;20032;-79
2022/01/08 14:18:26;;;;;;;17.52;11.63;;;;;;;;;;5022695;28;20555;-78
2022/01/08 14:20:55;;;;;;;14.43;10.02;;;;;;;;;;5019762;28;20038;-79
2022/01/08 14:23:23;;;;;;;20.63;11.13;;;;;;;;;;5023799;28;20465;-80
2022/01/08 14:25:49;;;;;;;14.85;9.93;;;;;;;;;;5028408;28;20030;-80
2022/01/08 14:28:18;;;;;;;18.98;10.98;;;;;;;;;;5013769;28;20023;-80
2022/01/08 14:30:45;;;;;;;18.77;11.32;;;;;;;;;;5028373;28;20041;-79
2022/01/08 14:33:11;;;;;;;16.85;10.65;;;;;;;;;;5028668;28;20032;-79
2022/01/08 14:35:37;;;;;;;17.67;10.10;;;;;;;;;;5020783;28;20029;-79
2022/01/08 14:38:03;;;;;;;16.33;10.07;;;;;;;;;;5019960;28;20049;-78
2022/01/08 14:40:32;;;;;;;15.15;10.43;;;;;;;;;;5022385;28;20041;-80
2022/01/08 14:43:02;;;;;;;17.02;10.73;;;;;;;;;;5026923;28;20026;-80
2022/01/08 14:45:31;;;;;;;14.75;11.27;;;;;;;;;;5024306;28;20098;-80
2022/01/08 14:48:00;;;;;;;16.67;10.77;;;;;;;;;;5018128;28;20050;-80
2022/01/08 14:50:30;;;;;;;16.83;11.52;;;;;;;;;;5005968;28;20033;-80